sensor_id;sensor_type;location;lat;lon;timestamp;temperature;humidity
14122;DHT22;7139;48.114;11.442;2023-04-24T00:01:02;11.40;99.90
14122;DHT22;7139;48.114;11.442;2023-04-24T00:03:28;11.40;99.90
14122;DHT22;7139;48.114;11.442;2023-04-24T00:05:55;11.40;99.90
14122;DHT22;7139;48.114;11.442;2023-04-24T00:08:23;11.40;99.90
14122;DHT22;7139;48.114;11.442;2023-04-24T00:10:50;11.40;99.90
14122;DHT22;7139;48.114;11.442;2023-04-24T00:13:18;11.40;99.90
14122;DHT22;7139;48.114;11.442;2023-04-24T00:15:44;11.40;99.90
14122;DHT22;7139;48.114;11.442;2023-04-24T00:18:11;11.40;99.90
14122;DHT22;7139;48.114;11.442;2023-04-24T00:20:38;11.40;99.90
14122;DHT22;7139;48.114;11.442;2023-04-24T00:23:05;11.40;99.90
14122;DHT22;7139;48.114;11.442;2023-04-24T00:25:33;11.30;99.90
14122;DHT22;7139;48.114;11.442;2023-04-24T00:27:59;11.30;99.90
14122;DHT22;7139;48.114;11.442;2023-04-24T00:30:26;11.20;99.90
14122;DHT22;7139;48.114;11.442;2023-04-24T00:32:53;11.20;99.90
14122;DHT22;7139;48.114;11.442;2023-04-24T00:35:20;11.20;99.90
14122;DHT22;7139;48.114;11.442;2023-04-24T00:37:46;11.20;99.90
14122;DHT22;7139;48.114;11.442;2023-04-24T00:40:13;11.20;99.90
14122;DHT22;7139;48.114;11.442;2023-04-24T00:42:41;11.20;99.90
14122;DHT22;7139;48.114;11.442;2023-04-24T00:45:10;11.20;99.90
14122;DHT22;7139;48.114;11.442;2023-04-24T00:47:37;11.10;99.90
14122;DHT22;7139;48.114;11.442;2023-04-24T00:50:05;11.00;99.90
14122;DHT22;7139;48.114;11.442;2023-04-24T00:52:32;11.00;99.90
14122;DHT22;7139;48.114;11.442;2023-04-24T00:54:59;11.00;99.90
14122;DHT22;7139;48.114;11.442;2023-04-24T00:57:26;11.00;99.90
14122;DHT22;7139;48.114;11.442;2023-04-24T00:59:54;10.90;99.90
14122;DHT22;7139;48.114;11.442;2023-04-24T01:02:22;10.90;99.90
14122;DHT22;7139;48.114;11.442;2023-04-24T01:04:50;10.90;99.90
14122;DHT22;7139;48.114;11.442;2023-04-24T01:07:19;10.90;99.90
14122;DHT22;7139;48.114;11.442;2023-04-24T01:09:48;10.90;99.90
14122;DHT22;7139;48.114;11.442;2023-04-24T01:12:17;10.90;99.90
14122;DHT22;7139;48.114;11.442;2023-04-24T01:14:44;10.90;99.90
14122;DHT22;7139;48.114;11.442;2023-04-24T01:17:12;10.90;99.90
14122;DHT22;7139;48.114;11.442;2023-04-24T01:19:39;10.80;99.90
14122;DHT22;7139;48.114;11.442;2023-04-24T01:22:11;10.80;99.90
14122;DHT22;7139;48.114;11.442;2023-04-24T01:24:37;10.70;99.90
14122;DHT22;7139;48.114;11.442;2023-04-24T01:27:05;10.70;99.90
14122;DHT22;7139;48.114;11.442;2023-04-24T01:29:32;10.60;99.90
14122;DHT22;7139;48.114;11.442;2023-04-24T01:31:58;10.60;99.90
14122;DHT22;7139;48.114;11.442;2023-04-24T01:34:25;10.70;99.90
14122;DHT22;7139;48.114;11.442;2023-04-24T01:36:52;10.70;99.90
14122;DHT22;7139;48.114;11.442;2023-04-24T01:39:20;10.70;99.90
14122;DHT22;7139;48.114;11.442;2023-04-24T01:41:48;10.70;99.90
14122;DHT22;7139;48.114;11.442;2023-04-24T01:44:16;10.50;99.90
14122;DHT22;7139;48.114;11.442;2023-04-24T01:46:42;10.50;99.90
14122;DHT22;7139;48.114;11.442;2023-04-24T01:49:09;10.60;99.90
14122;DHT22;7139;48.114;11.442;2023-04-24T01:51:36;10.60;99.90
14122;DHT22;7139;48.114;11.442;2023-04-24T01:54:04;10.60;99.90
14122;DHT22;7139;48.114;11.442;2023-04-24T01:56:33;10.50;99.90
14122;DHT22;7139;48.114;11.442;2023-04-24T01:59:02;10.50;99.90
14122;DHT22;7139;48.114;11.442;2023-04-24T02:01:33;10.40;99.90
14122;DHT22;7139;48.114;11.442;2023-04-24T02:04:01;10.40;99.90
14122;DHT22;7139;48.114;11.442;2023-04-24T02:06:28;10.40;99.90
14122;DHT22;7139;48.114;11.442;2023-04-24T02:08:56;10.40;99.90
14122;DHT22;7139;48.114;11.442;2023-04-24T02:11:23;10.40;99.90
14122;DHT22;7139;48.114;11.442;2023-04-24T02:13:51;10.40;99.90
14122;DHT22;7139;48.114;11.442;2023-04-24T02:16:18;10.30;99.90
14122;DHT22;7139;48.114;11.442;2023-04-24T02:18:45;10.40;99.90
14122;DHT22;7139;48.114;11.442;2023-04-24T02:21:12;10.30;99.90
14122;DHT22;7139;48.114;11.442;2023-04-24T02:23:38;10.30;99.90
14122;DHT22;7139;48.114;11.442;2023-04-24T02:26:06;10.30;99.90
14122;DHT22;7139;48.114;11.442;2023-04-24T02:28:32;10.20;99.90
14122;DHT22;7139;48.114;11.442;2023-04-24T02:31:00;10.20;99.90
14122;DHT22;7139;48.114;11.442;2023-04-24T02:33:27;10.30;99.90
14122;DHT22;7139;48.114;11.442;2023-04-24T02:35:54;10.30;99.90
14122;DHT22;7139;48.114;11.442;2023-04-24T02:38:20;10.30;99.90
14122;DHT22;7139;48.114;11.442;2023-04-24T02:40:47;10.30;99.90
14122;DHT22;7139;48.114;11.442;2023-04-24T02:43:14;10.20;99.90
14122;DHT22;7139;48.114;11.442;2023-04-24T02:45:41;10.20;99.90
14122;DHT22;7139;48.114;11.442;2023-04-24T02:48:09;10.30;99.90
14122;DHT22;7139;48.114;11.442;2023-04-24T02:50:35;10.30;99.90
14122;DHT22;7139;48.114;11.442;2023-04-24T02:53:02;10.30;99.90
14122;DHT22;7139;48.114;11.442;2023-04-24T02:55:29;10.30;99.90
14122;DHT22;7139;48.114;11.442;2023-04-24T02:57:55;10.20;99.90
14122;DHT22;7139;48.114;11.442;2023-04-24T03:00:22;10.20;99.90
14122;DHT22;7139;48.114;11.442;2023-04-24T03:02:49;10.20;99.90
14122;DHT22;7139;48.114;11.442;2023-04-24T03:05:17;10.20;99.90
14122;DHT22;7139;48.114;11.442;2023-04-24T03:07:44;10.20;99.90
14122;DHT22;7139;48.114;11.442;2023-04-24T03:10:11;10.20;99.90
14122;DHT22;7139;48.114;11.442;2023-04-24T03:12:38;10.20;99.90
14122;DHT22;7139;48.114;11.442;2023-04-24T03:15:06;10.10;99.90
14122;DHT22;7139;48.114;11.442;2023-04-24T03:17:33;10.10;99.90
14122;DHT22;7139;48.114;11.442;2023-04-24T03:20:00;10.10;99.90
14122;DHT22;7139;48.114;11.442;2023-04-24T03:22:28;10.00;99.90
14122;DHT22;7139;48.114;11.442;2023-04-24T03:24:55;10.10;99.90
14122;DHT22;7139;48.114;11.442;2023-04-24T03:27:22;10.20;99.90
14122;DHT22;7139;48.114;11.442;2023-04-24T03:29:49;10.20;99.90
14122;DHT22;7139;48.114;11.442;2023-04-24T03:32:19;10.20;99.90
14122;DHT22;7139;48.114;11.442;2023-04-24T03:34:46;10.20;99.90
14122;DHT22;7139;48.114;11.442;2023-04-24T03:37:12;10.10;99.90
14122;DHT22;7139;48.114;11.442;2023-04-24T03:39:40;10.10;99.90
14122;DHT22;7139;48.114;11.442;2023-04-24T03:42:07;10.10;99.90
14122;DHT22;7139;48.114;11.442;2023-04-24T03:44:34;10.10;99.90
14122;DHT22;7139;48.114;11.442;2023-04-24T03:47:01;10.10;99.90
14122;DHT22;7139;48.114;11.442;2023-04-24T03:49:28;10.10;99.90
14122;DHT22;7139;48.114;11.442;2023-04-24T03:51:55;10.10;99.90
14122;DHT22;7139;48.114;11.442;2023-04-24T03:54:21;10.00;99.90
14122;DHT22;7139;48.114;11.442;2023-04-24T03:56:49;10.10;99.90
14122;DHT22;7139;48.114;11.442;2023-04-24T03:59:16;10.10;99.90
14122;DHT22;7139;48.114;11.442;2023-04-24T04:01:43;10.10;99.90
14122;DHT22;7139;48.114;11.442;2023-04-24T04:04:10;10.10;99.90
14122;DHT22;7139;48.114;11.442;2023-04-24T04:06:37;10.10;99.90
14122;DHT22;7139;48.114;11.442;2023-04-24T04:09:04;10.10;99.90
14122;DHT22;7139;48.114;11.442;2023-04-24T04:11:32;10.10;99.90
14122;DHT22;7139;48.114;11.442;2023-04-24T04:14:00;10.10;99.90
14122;DHT22;7139;48.114;11.442;2023-04-24T04:16:27;10.10;99.90
14122;DHT22;7139;48.114;11.442;2023-04-24T04:18:54;10.10;99.90
14122;DHT22;7139;48.114;11.442;2023-04-24T04:21:20;10.10;99.90
14122;DHT22;7139;48.114;11.442;2023-04-24T04:23:47;10.10;99.90
14122;DHT22;7139;48.114;11.442;2023-04-24T04:26:14;10.10;99.90
14122;DHT22;7139;48.114;11.442;2023-04-24T04:28:41;10.10;99.90
14122;DHT22;7139;48.114;11.442;2023-04-24T04:31:11;10.00;99.90
14122;DHT22;7139;48.114;11.442;2023-04-24T04:33:38;10.00;99.90
14122;DHT22;7139;48.114;11.442;2023-04-24T04:36:05;10.10;99.90
14122;DHT22;7139;48.114;11.442;2023-04-24T04:38:32;10.10;99.90
14122;DHT22;7139;48.114;11.442;2023-04-24T04:40:59;10.10;99.90
14122;DHT22;7139;48.114;11.442;2023-04-24T04:43:25;10.10;99.90
14122;DHT22;7139;48.114;11.442;2023-04-24T04:45:52;10.10;99.90
14122;DHT22;7139;48.114;11.442;2023-04-24T04:48:21;10.00;99.90
14122;DHT22;7139;48.114;11.442;2023-04-24T04:50:48;10.10;99.90
14122;DHT22;7139;48.114;11.442;2023-04-24T04:53:15;10.00;99.90
14122;DHT22;7139;48.114;11.442;2023-04-24T04:55:41;10.00;99.90
14122;DHT22;7139;48.114;11.442;2023-04-24T04:58:08;10.00;99.90
14122;DHT22;7139;48.114;11.442;2023-04-24T05:00:35;10.00;99.90
14122;DHT22;7139;48.114;11.442;2023-04-24T05:03:03;10.00;99.90
14122;DHT22;7139;48.114;11.442;2023-04-24T05:05:31;10.00;99.90
14122;DHT22;7139;48.114;11.442;2023-04-24T05:07:58;10.00;99.90
14122;DHT22;7139;48.114;11.442;2023-04-24T05:10:25;10.00;99.90
14122;DHT22;7139;48.114;11.442;2023-04-24T05:12:52;10.00;99.90
14122;DHT22;7139;48.114;11.442;2023-04-24T05:15:19;10.00;99.90
14122;DHT22;7139;48.114;11.442;2023-04-24T05:17:45;10.10;99.90
14122;DHT22;7139;48.114;11.442;2023-04-24T05:20:12;10.10;99.90
14122;DHT22;7139;48.114;11.442;2023-04-24T05:22:41;10.10;99.90
14122;DHT22;7139;48.114;11.442;2023-04-24T05:25:08;10.10;99.90
14122;DHT22;7139;48.114;11.442;2023-04-24T05:27:35;10.10;99.90
14122;DHT22;7139;48.114;11.442;2023-04-24T05:30:01;10.10;99.90
14122;DHT22;7139;48.114;11.442;2023-04-24T05:32:28;10.20;99.90
14122;DHT22;7139;48.114;11.442;2023-04-24T05:34:55;10.20;99.90
14122;DHT22;7139;48.114;11.442;2023-04-24T05:37:22;10.20;99.90
14122;DHT22;7139;48.114;11.442;2023-04-24T05:39:50;10.20;99.90
14122;DHT22;7139;48.114;11.442;2023-04-24T05:42:16;10.20;99.90
14122;DHT22;7139;48.114;11.442;2023-04-24T05:44:43;10.20;99.90
14122;DHT22;7139;48.114;11.442;2023-04-24T05:47:10;10.10;99.90
14122;DHT22;7139;48.114;11.442;2023-04-24T05:49:37;10.20;99.90
14122;DHT22;7139;48.114;11.442;2023-04-24T05:52:03;10.20;99.90
14122;DHT22;7139;48.114;11.442;2023-04-24T05:54:31;10.20;99.90
14122;DHT22;7139;48.114;11.442;2023-04-24T05:57:00;10.20;99.90
14122;DHT22;7139;48.114;11.442;2023-04-24T05:59:29;10.30;99.90
14122;DHT22;7139;48.114;11.442;2023-04-24T06:01:56;10.20;99.90
14122;DHT22;7139;48.114;11.442;2023-04-24T06:04:23;10.30;99.90
14122;DHT22;7139;48.114;11.442;2023-04-24T06:06:50;10.30;99.90
14122;DHT22;7139;48.114;11.442;2023-04-24T06:09:21;10.40;99.90
14122;DHT22;7139;48.114;11.442;2023-04-24T06:11:48;10.40;99.90
14122;DHT22;7139;48.114;11.442;2023-04-24T06:14:16;10.40;99.90
14122;DHT22;7139;48.114;11.442;2023-04-24T06:16:43;10.50;99.90
14122;DHT22;7139;48.114;11.442;2023-04-24T06:19:10;10.60;99.90
14122;DHT22;7139;48.114;11.442;2023-04-24T06:21:36;10.60;99.90
14122;DHT22;7139;48.114;11.442;2023-04-24T06:24:04;10.50;99.90
14122;DHT22;7139;48.114;11.442;2023-04-24T06:26:31;10.50;99.90
14122;DHT22;7139;48.114;11.442;2023-04-24T06:28:58;10.50;99.90
14122;DHT22;7139;48.114;11.442;2023-04-24T06:31:27;10.50;99.90
14122;DHT22;7139;48.114;11.442;2023-04-24T06:33:53;10.50;99.90
14122;DHT22;7139;48.114;11.442;2023-04-24T06:36:20;10.50;99.90
14122;DHT22;7139;48.114;11.442;2023-04-24T06:38:47;10.50;99.90
14122;DHT22;7139;48.114;11.442;2023-04-24T06:41:13;10.50;99.90
14122;DHT22;7139;48.114;11.442;2023-04-24T06:43:40;10.60;99.90
14122;DHT22;7139;48.114;11.442;2023-04-24T06:46:07;10.70;99.90
14122;DHT22;7139;48.114;11.442;2023-04-24T06:48:36;10.70;99.90
14122;DHT22;7139;48.114;11.442;2023-04-24T06:51:02;10.70;99.90
14122;DHT22;7139;48.114;11.442;2023-04-24T06:53:29;10.80;99.90
14122;DHT22;7139;48.114;11.442;2023-04-24T06:55:56;10.80;99.90
14122;DHT22;7139;48.114;11.442;2023-04-24T06:58:23;10.80;99.90
14122;DHT22;7139;48.114;11.442;2023-04-24T07:00:50;10.90;99.90
14122;DHT22;7139;48.114;11.442;2023-04-24T07:03:17;10.90;99.90
14122;DHT22;7139;48.114;11.442;2023-04-24T07:05:45;11.00;99.90
14122;DHT22;7139;48.114;11.442;2023-04-24T07:08:13;11.00;99.90
14122;DHT22;7139;48.114;11.442;2023-04-24T07:10:39;11.00;99.90
14122;DHT22;7139;48.114;11.442;2023-04-24T07:13:06;11.00;99.90
14122;DHT22;7139;48.114;11.442;2023-04-24T07:15:33;11.00;99.90
14122;DHT22;7139;48.114;11.442;2023-04-24T07:18:00;11.00;99.90
14122;DHT22;7139;48.114;11.442;2023-04-24T07:20:27;11.00;99.90
14122;DHT22;7139;48.114;11.442;2023-04-24T07:22:55;11.00;99.90
14122;DHT22;7139;48.114;11.442;2023-04-24T07:25:22;11.00;99.90
14122;DHT22;7139;48.114;11.442;2023-04-24T07:27:49;11.00;99.90
14122;DHT22;7139;48.114;11.442;2023-04-24T07:30:15;11.00;99.90
14122;DHT22;7139;48.114;11.442;2023-04-24T07:32:42;10.90;99.90
14122;DHT22;7139;48.114;11.442;2023-04-24T07:35:09;10.90;99.90
14122;DHT22;7139;48.114;11.442;2023-04-24T07:37:36;11.00;99.90
14122;DHT22;7139;48.114;11.442;2023-04-24T07:40:05;11.00;99.90
14122;DHT22;7139;48.114;11.442;2023-04-24T07:42:33;11.00;99.90
14122;DHT22;7139;48.114;11.442;2023-04-24T07:45:00;11.10;99.90
14122;DHT22;7139;48.114;11.442;2023-04-24T07:47:27;11.10;99.90
14122;DHT22;7139;48.114;11.442;2023-04-24T07:49:53;11.10;99.90
14122;DHT22;7139;48.114;11.442;2023-04-24T07:52:20;11.20;99.90
14122;DHT22;7139;48.114;11.442;2023-04-24T07:54:47;11.30;99.90
14122;DHT22;7139;48.114;11.442;2023-04-24T07:57:16;11.30;99.90
14122;DHT22;7139;48.114;11.442;2023-04-24T07:59:43;11.30;99.90
14122;DHT22;7139;48.114;11.442;2023-04-24T08:02:10;11.30;99.90
14122;DHT22;7139;48.114;11.442;2023-04-24T08:04:37;11.40;99.90
14122;DHT22;7139;48.114;11.442;2023-04-24T08:07:04;11.40;99.90
14122;DHT22;7139;48.114;11.442;2023-04-24T08:09:30;11.50;99.90
14122;DHT22;7139;48.114;11.442;2023-04-24T08:11:57;11.50;99.90
14122;DHT22;7139;48.114;11.442;2023-04-24T08:14:25;11.50;99.90
14122;DHT22;7139;48.114;11.442;2023-04-24T08:16:53;11.40;99.90
14122;DHT22;7139;48.114;11.442;2023-04-24T08:19:20;11.40;99.90
14122;DHT22;7139;48.114;11.442;2023-04-24T08:21:46;11.40;99.90
14122;DHT22;7139;48.114;11.442;2023-04-24T08:24:13;11.40;99.90
14122;DHT22;7139;48.114;11.442;2023-04-24T08:26:40;11.30;99.90
14122;DHT22;7139;48.114;11.442;2023-04-24T08:29:07;11.30;99.90
14122;DHT22;7139;48.114;11.442;2023-04-24T08:31:35;11.10;99.90
14122;DHT22;7139;48.114;11.442;2023-04-24T08:34:02;11.00;99.90
14122;DHT22;7139;48.114;11.442;2023-04-24T08:36:28;10.80;99.90
14122;DHT22;7139;48.114;11.442;2023-04-24T08:38:56;10.60;99.90
14122;DHT22;7139;48.114;11.442;2023-04-24T08:41:23;10.60;99.90
14122;DHT22;7139;48.114;11.442;2023-04-24T08:43:52;10.70;99.90
14122;DHT22;7139;48.114;11.442;2023-04-24T08:46:19;10.70;99.90
14122;DHT22;7139;48.114;11.442;2023-04-24T08:48:48;10.80;99.90
14122;DHT22;7139;48.114;11.442;2023-04-24T08:51:17;10.70;99.90
14122;DHT22;7139;48.114;11.442;2023-04-24T08:53:47;10.50;99.90
14122;DHT22;7139;48.114;11.442;2023-04-24T08:56:14;10.50;99.90
14122;DHT22;7139;48.114;11.442;2023-04-24T08:58:42;10.50;99.90
14122;DHT22;7139;48.114;11.442;2023-04-24T09:01:09;10.70;99.90
14122;DHT22;7139;48.114;11.442;2023-04-24T09:03:37;10.60;99.90
14122;DHT22;7139;48.114;11.442;2023-04-24T09:06:08;10.60;99.90
14122;DHT22;7139;48.114;11.442;2023-04-24T09:08:36;10.50;99.90
14122;DHT22;7139;48.114;11.442;2023-04-24T09:11:03;10.60;99.90
14122;DHT22;7139;48.114;11.442;2023-04-24T09:13:30;10.70;99.90
14122;DHT22;7139;48.114;11.442;2023-04-24T09:15:58;10.70;99.90
14122;DHT22;7139;48.114;11.442;2023-04-24T09:18:26;10.70;99.90
14122;DHT22;7139;48.114;11.442;2023-04-24T09:21:32;10.70;99.90
14122;DHT22;7139;48.114;11.442;2023-04-24T09:24:00;10.80;99.90
14122;DHT22;7139;48.114;11.442;2023-04-24T09:26:29;10.90;99.90
14122;DHT22;7139;48.114;11.442;2023-04-24T09:28:58;10.90;99.90
14122;DHT22;7139;48.114;11.442;2023-04-24T09:31:27;10.90;99.90
14122;DHT22;7139;48.114;11.442;2023-04-24T09:33:56;11.00;99.90
14122;DHT22;7139;48.114;11.442;2023-04-24T09:36:32;11.10;99.90
14122;DHT22;7139;48.114;11.442;2023-04-24T09:38:59;11.10;99.90
14122;DHT22;7139;48.114;11.442;2023-04-24T09:41:27;11.20;99.90
14122;DHT22;7139;48.114;11.442;2023-04-24T09:43:55;11.20;99.90
14122;DHT22;7139;48.114;11.442;2023-04-24T09:46:29;11.40;99.90
14122;DHT22;7139;48.114;11.442;2023-04-24T09:48:57;11.40;99.90
14122;DHT22;7139;48.114;11.442;2023-04-24T09:51:35;11.50;99.90
14122;DHT22;7139;48.114;11.442;2023-04-24T09:54:03;11.70;99.90
14122;DHT22;7139;48.114;11.442;2023-04-24T09:56:32;11.70;99.90
14122;DHT22;7139;48.114;11.442;2023-04-24T09:59:07;11.80;99.90
14122;DHT22;7139;48.114;11.442;2023-04-24T10:01:35;11.90;99.90
14122;DHT22;7139;48.114;11.442;2023-04-24T10:04:03;12.10;99.90
14122;DHT22;7139;48.114;11.442;2023-04-24T10:06:34;12.30;99.90
14122;DHT22;7139;48.114;11.442;2023-04-24T10:09:02;12.40;99.90
14122;DHT22;7139;48.114;11.442;2023-04-24T10:11:29;12.40;99.90
14122;DHT22;7139;48.114;11.442;2023-04-24T10:13:56;12.40;99.90
14122;DHT22;7139;48.114;11.442;2023-04-24T10:16:24;12.50;99.90
14122;DHT22;7139;48.114;11.442;2023-04-24T10:18:52;12.60;99.90
14122;DHT22;7139;48.114;11.442;2023-04-24T10:21:20;12.70;99.90
14122;DHT22;7139;48.114;11.442;2023-04-24T10:23:49;12.80;99.90
14122;DHT22;7139;48.114;11.442;2023-04-24T10:26:16;12.80;99.90
14122;DHT22;7139;48.114;11.442;2023-04-24T10:28:45;12.80;99.90
14122;DHT22;7139;48.114;11.442;2023-04-24T10:31:12;12.70;99.90
14122;DHT22;7139;48.114;11.442;2023-04-24T10:33:40;12.60;99.90
14122;DHT22;7139;48.114;11.442;2023-04-24T10:36:08;12.50;99.90
14122;DHT22;7139;48.114;11.442;2023-04-24T10:38:37;12.40;99.90
14122;DHT22;7139;48.114;11.442;2023-04-24T10:41:10;12.30;99.90
14122;DHT22;7139;48.114;11.442;2023-04-24T10:43:42;12.20;99.90
14122;DHT22;7139;48.114;11.442;2023-04-24T10:46:09;12.00;99.90
14122;DHT22;7139;48.114;11.442;2023-04-24T10:48:42;11.60;99.90
14122;DHT22;7139;48.114;11.442;2023-04-24T10:51:11;11.10;99.90
14122;DHT22;7139;48.114;11.442;2023-04-24T10:53:39;10.70;99.90
14122;DHT22;7139;48.114;11.442;2023-04-24T10:56:07;10.40;99.90
14122;DHT22;7139;48.114;11.442;2023-04-24T10:58:41;10.40;99.90
14122;DHT22;7139;48.114;11.442;2023-04-24T11:01:23;10.50;99.90
14122;DHT22;7139;48.114;11.442;2023-04-24T11:03:51;10.60;99.90
14122;DHT22;7139;48.114;11.442;2023-04-24T11:06:28;10.70;99.90
14122;DHT22;7139;48.114;11.442;2023-04-24T11:09:02;10.90;99.90
14122;DHT22;7139;48.114;11.442;2023-04-24T11:11:29;11.20;99.90
14122;DHT22;7139;48.114;11.442;2023-04-24T11:14:08;11.40;99.90
14122;DHT22;7139;48.114;11.442;2023-04-24T11:16:45;11.70;99.90
14122;DHT22;7139;48.114;11.442;2023-04-24T11:19:21;11.90;99.90
14122;DHT22;7139;48.114;11.442;2023-04-24T11:21:55;12.20;99.90
14122;DHT22;7139;48.114;11.442;2023-04-24T11:24:33;12.40;99.90
14122;DHT22;7139;48.114;11.442;2023-04-24T11:27:12;12.50;99.90
14122;DHT22;7139;48.114;11.442;2023-04-24T11:29:43;12.70;99.90
14122;DHT22;7139;48.114;11.442;2023-04-24T11:32:18;12.90;99.90
14122;DHT22;7139;48.114;11.442;2023-04-24T11:34:47;12.90;99.90
14122;DHT22;7139;48.114;11.442;2023-04-24T11:37:14;12.90;99.90
14122;DHT22;7139;48.114;11.442;2023-04-24T11:39:40;13.00;99.90
14122;DHT22;7139;48.114;11.442;2023-04-24T11:42:07;12.90;99.90
14122;DHT22;7139;48.114;11.442;2023-04-24T11:44:35;12.90;99.90
14122;DHT22;7139;48.114;11.442;2023-04-24T11:47:04;12.90;99.90
14122;DHT22;7139;48.114;11.442;2023-04-24T11:49:31;12.70;99.90
14122;DHT22;7139;48.114;11.442;2023-04-24T11:51:57;12.70;99.90
14122;DHT22;7139;48.114;11.442;2023-04-24T11:54:27;12.50;99.90
14122;DHT22;7139;48.114;11.442;2023-04-24T11:56:54;12.40;99.90
14122;DHT22;7139;48.114;11.442;2023-04-24T11:59:21;12.40;99.90
14122;DHT22;7139;48.114;11.442;2023-04-24T12:01:48;12.60;99.90
14122;DHT22;7139;48.114;11.442;2023-04-24T12:04:17;12.70;99.90
14122;DHT22;7139;48.114;11.442;2023-04-24T12:07:00;12.90;99.90
14122;DHT22;7139;48.114;11.442;2023-04-24T12:09:26;12.80;99.30
14122;DHT22;7139;48.114;11.442;2023-04-24T12:11:54;12.80;99.50
14122;DHT22;7139;48.114;11.442;2023-04-24T12:14:24;12.90;99.90
14122;DHT22;7139;48.114;11.442;2023-04-24T12:16:51;13.00;99.60
14122;DHT22;7139;48.114;11.442;2023-04-24T12:19:20;13.00;99.30
14122;DHT22;7139;48.114;11.442;2023-04-24T12:21:59;13.00;99.10
14122;DHT22;7139;48.114;11.442;2023-04-24T12:24:26;13.00;98.80
14122;DHT22;7139;48.114;11.442;2023-04-24T12:26:53;13.20;98.80
14122;DHT22;7139;48.114;11.442;2023-04-24T12:29:20;13.60;98.00
14122;DHT22;7139;48.114;11.442;2023-04-24T12:31:47;13.70;96.20
14122;DHT22;7139;48.114;11.442;2023-04-24T12:34:21;13.60;95.40
14122;DHT22;7139;48.114;11.442;2023-04-24T12:36:49;13.70;96.20
14122;DHT22;7139;48.114;11.442;2023-04-24T12:39:15;13.70;94.80
14122;DHT22;7139;48.114;11.442;2023-04-24T12:41:51;13.70;94.80
14122;DHT22;7139;48.114;11.442;2023-04-24T12:44:28;13.70;93.70
14122;DHT22;7139;48.114;11.442;2023-04-24T12:46:55;13.70;92.90
14122;DHT22;7139;48.114;11.442;2023-04-24T12:49:23;13.50;92.00
14122;DHT22;7139;48.114;11.442;2023-04-24T12:51:50;13.40;92.70
14122;DHT22;7139;48.114;11.442;2023-04-24T12:54:17;13.60;93.30
14122;DHT22;7139;48.114;11.442;2023-04-24T12:56:44;13.80;95.30
14122;DHT22;7139;48.114;11.442;2023-04-24T12:59:10;14.00;95.80
14122;DHT22;7139;48.114;11.442;2023-04-24T13:01:37;14.00;96.10
14122;DHT22;7139;48.114;11.442;2023-04-24T13:04:04;14.10;95.50
14122;DHT22;7139;48.114;11.442;2023-04-24T13:06:33;14.20;95.00
14122;DHT22;7139;48.114;11.442;2023-04-24T13:08:59;14.10;95.70
14122;DHT22;7139;48.114;11.442;2023-04-24T13:11:26;14.20;96.20
14122;DHT22;7139;48.114;11.442;2023-04-24T13:13:54;14.10;95.60
14122;DHT22;7139;48.114;11.442;2023-04-24T13:16:21;13.90;96.30
14122;DHT22;7139;48.114;11.442;2023-04-24T13:18:48;13.70;95.10
14122;DHT22;7139;48.114;11.442;2023-04-24T13:21:15;13.70;94.40
14122;DHT22;7139;48.114;11.442;2023-04-24T13:23:43;13.60;94.60
14122;DHT22;7139;48.114;11.442;2023-04-24T13:26:10;13.70;94.10
14122;DHT22;7139;48.114;11.442;2023-04-24T13:28:37;13.80;94.10
14122;DHT22;7139;48.114;11.442;2023-04-24T13:31:04;14.00;94.00
14122;DHT22;7139;48.114;11.442;2023-04-24T13:33:31;13.80;92.90
14122;DHT22;7139;48.114;11.442;2023-04-24T13:35:58;13.70;93.30
14122;DHT22;7139;48.114;11.442;2023-04-24T13:38:25;13.70;93.30
14122;DHT22;7139;48.114;11.442;2023-04-24T13:40:53;13.70;93.70
14122;DHT22;7139;48.114;11.442;2023-04-24T13:43:20;13.60;93.30
14122;DHT22;7139;48.114;11.442;2023-04-24T13:45:47;13.80;93.70
14122;DHT22;7139;48.114;11.442;2023-04-24T13:48:14;13.80;93.00
14122;DHT22;7139;48.114;11.442;2023-04-24T13:50:41;13.60;92.90
14122;DHT22;7139;48.114;11.442;2023-04-24T13:53:08;13.50;93.10
14122;DHT22;7139;48.114;11.442;2023-04-24T13:55:35;13.40;93.50
14122;DHT22;7139;48.114;11.442;2023-04-24T13:58:03;13.60;94.50
14122;DHT22;7139;48.114;11.442;2023-04-24T14:00:30;13.70;93.10
14122;DHT22;7139;48.114;11.442;2023-04-24T14:02:57;13.90;93.10
14122;DHT22;7139;48.114;11.442;2023-04-24T14:05:23;14.10;92.80
14122;DHT22;7139;48.114;11.442;2023-04-24T14:07:50;14.30;92.60
14122;DHT22;7139;48.114;11.442;2023-04-24T14:10:17;14.40;91.10
14122;DHT22;7139;48.114;11.442;2023-04-24T14:12:44;14.40;90.80
14122;DHT22;7139;48.114;11.442;2023-04-24T14:15:12;14.20;91.30
14122;DHT22;7139;48.114;11.442;2023-04-24T14:17:39;14.20;91.30
14122;DHT22;7139;48.114;11.442;2023-04-24T14:20:07;14.30;91.30
14122;DHT22;7139;48.114;11.442;2023-04-24T14:22:34;14.50;91.40
14122;DHT22;7139;48.114;11.442;2023-04-24T14:25:01;14.50;90.60
14122;DHT22;7139;48.114;11.442;2023-04-24T14:27:28;14.50;90.80
14122;DHT22;7139;48.114;11.442;2023-04-24T14:29:55;14.40;89.40
14122;DHT22;7139;48.114;11.442;2023-04-24T14:32:23;14.40;90.20
14122;DHT22;7139;48.114;11.442;2023-04-24T14:34:50;14.50;90.30
14122;DHT22;7139;48.114;11.442;2023-04-24T14:37:17;14.40;89.00
14122;DHT22;7139;48.114;11.442;2023-04-24T14:39:44;14.30;90.10
14122;DHT22;7139;48.114;11.442;2023-04-24T14:42:11;14.20;89.80
14122;DHT22;7139;48.114;11.442;2023-04-24T14:44:39;14.00;89.20
14122;DHT22;7139;48.114;11.442;2023-04-24T14:47:05;13.70;89.60
14122;DHT22;7139;48.114;11.442;2023-04-24T14:49:34;13.60;90.30
14122;DHT22;7139;48.114;11.442;2023-04-24T14:52:00;13.60;90.30
14122;DHT22;7139;48.114;11.442;2023-04-24T14:54:28;13.80;90.20
14122;DHT22;7139;48.114;11.442;2023-04-24T14:56:56;14.00;89.20
14122;DHT22;7139;48.114;11.442;2023-04-24T14:59:23;14.20;88.90
14122;DHT22;7139;48.114;11.442;2023-04-24T15:01:50;14.20;87.50
14122;DHT22;7139;48.114;11.442;2023-04-24T15:04:18;14.20;87.30
14122;DHT22;7139;48.114;11.442;2023-04-24T15:06:48;13.90;87.30
14122;DHT22;7139;48.114;11.442;2023-04-24T15:09:15;13.70;87.20
14122;DHT22;7139;48.114;11.442;2023-04-24T15:11:42;13.70;86.80
14122;DHT22;7139;48.114;11.442;2023-04-24T15:14:09;13.60;86.30
14122;DHT22;7139;48.114;11.442;2023-04-24T15:16:35;13.50;85.90
14122;DHT22;7139;48.114;11.442;2023-04-24T15:19:02;13.50;86.70
14122;DHT22;7139;48.114;11.442;2023-04-24T15:21:29;13.70;85.20
14122;DHT22;7139;48.114;11.442;2023-04-24T15:23:57;13.80;85.40
14122;DHT22;7139;48.114;11.442;2023-04-24T15:26:24;13.70;85.50
14122;DHT22;7139;48.114;11.442;2023-04-24T15:28:51;13.70;86.40
14122;DHT22;7139;48.114;11.442;2023-04-24T15:31:18;13.60;87.10
14122;DHT22;7139;48.114;11.442;2023-04-24T15:33:45;13.80;85.60